Friday, November 24, 2017, 12:34 AM EST
Back to Local

KMWN, Mount Washington

Location: Bretton Woods, NH, United States Lat: 44.267
Local Time: 12:34 AM EST ( 5:34 GMT) Lon: -71.3
Time Zone: US/Eastern Elev: 6263 ft

Show me the last for .
Show Coded

Time T Td Feel RH Dir Speed Gust Alt SLP Vis Weather Sky Remarks
2017-11-23 23:50 9 9 -18 100 280° 46 - - - 0 -SHSN FZFG DRSN VV000 None
2017-11-23 22:52 9 9 -18 100 280° 45 - - - 0 -SHSN FZFG DRSN VV000 None
2017-11-23 21:53 9 9 -17 100 280° 38 43 - - 0 FZFG VV000 None
2017-11-23 20:56 9 9 -18 100 290° 37 45 - - 0 FZFG DRSN BKN000 BKN040 None
2017-11-23 19:48 9 9 -17 100 270° 39 43 - - 0 FZFG BKN000 OVC040 None
2017-11-23 18:55 10 3 -14 72 270° 38 - - - 120 BKN040 BKN080 OVC150 Snow depth: 6"
6-hr Min Temp (7pm): 6.4°F
6-hr Max Temp (7pm): 15.1°F
2017-11-23 17:58 14 -6 -10 40 270° 43 - - - 120 BKN040 BKN080 OVC150 None
2017-11-23 16:51 10 0 -14 60 290° 38 - - - 100 BKN040 BKN080 OVC150 Breaks in overcast
2017-11-23 15:55 12 -4 -10 47 290° 35 - - - 110 BKN055 BKN080 OVC150 Breaks in overcast
Virga in the vinicity
2017-11-23 14:59 14 -9 -9 33 290° 37 - - - 110 BKN055 BKN080 OVC150 Breaks in overcast
Virga in the vinicity
2017-11-23 13:56 14 -9 -8 33 290° 36 - - - 120 BKN070 BKN150 BKN170 None
2017-11-23 12:55 14 -9 -8 33 290° 36 - - - 120 SCT075 SCT140 BKN170 Snow depth: 6"
6-hr Min Temp (1pm): 9.1°F
6-hr Max Temp (1pm): 14.2°F
2017-11-23 11:49 14 -6 -8 40 300° 35 - - - 110 SCT090 SCT140 BKN170 None
2017-11-23 10:53 12 -6 -12 43 310° 39 - - - 110 BKN100 BKN160 BKN180 None
2017-11-23 09:53 12 -6 -12 43 310° 40 - - - 120 SCT070 BKN140 BKN180 None
2017-11-23 08:53 12 -8 -13 39 310° 45 - - - 120 FEW070 FEW140 SCT180 None
2017-11-23 07:54 10 -2 -16 55 310° 48 - - - 120 FEW070 SCT120 BKN180 None
2017-11-23 06:55 12 -2 -14 51 310° 51 - - - 120 FEW050 FEW100 SCT180 24-hr Precip Total (7am): 0.42"
Snow depth: 6"
6-hr Min Temp (7am): 5.2°F
6-hr Max Temp (7am): 11.3°F
2017-11-23 05:53 7 -8 -23 50 310° 59 - - - 130 FEW050 FEW150 None
2017-11-23 04:50 9 -11 -22 39 310° 59 66 - - 130 FEW050 FEW150 FEW250 None
2017-11-23 03:54 9 -11 -21 39 310° 58 63 - - 130 FEW050 FEW250 None
2017-11-23 02:54 7 -2 -24 65 310° 64 - - - 130 FEW020 FEW050 None
2017-11-23 01:53 5 5 -27 100 300° 58 66 - - 0 FZFG BKN000 None
2017-11-23 00:51 5 5 -27 100 310° 60 67 - - 0 FZFG BLSN VV000 6-hr Precip Total (1am): 0.05"
Snow depth: 6"
6-hr Min Temp (1am): 5.5°F
6-hr Max Temp (1am): 13.3°F

Support USWX by starting your Amazon purchase here.